Time;durP1;ratioP1;P1;durP2;ratioP2;P2;SDS_P1;SDS_P2;PMS_P1;PMS_P2;Temp;Humidity;BMP_temperature;BMP_pressure;BME280_temperature;BME280_humidity;BME280_pressure;Samples;Min_cycle;Max_cycle;Signal;HPM_P1;HPM_P2
2020/12/15 00:00:32;;;;;;;11.80;7.50;;;12.90;81.00;;;;;;4939149;29;20458;-93
2020/12/15 00:02:58;;;;;;;12.70;8.07;;;12.80;80.40;;;;;;4940890;29;20191;-93
2020/12/15 00:05:24;;;;;;;16.70;6.90;;;12.80;80.40;;;;;;4941504;29;20558;-92
2020/12/15 00:07:50;;;;;;;9.33;6.73;;;12.80;80.30;;;;;;4947175;29;20210;-92
2020/12/15 00:10:16;;;;;;;11.30;6.60;;;12.80;80.50;;;;;;4952252;29;20440;-91
2020/12/15 00:12:44;;;;;;;10.07;6.37;;;12.80;80.50;;;;;;4961453;29;20228;-92
2020/12/15 00:15:10;;;;;;;9.80;5.60;;;12.90;80.60;;;;;;4954241;29;20648;-92
2020/12/15 00:17:35;;;;;;;7.83;6.90;;;12.90;80.80;;;;;;4950604;29;20202;-92
2020/12/15 00:20:02;;;;;;;7.77;6.17;;;12.80;80.50;;;;;;4950605;29;20236;-91
2020/12/15 00:22:27;;;;;;;12.55;6.00;;;12.80;80.50;;;;;;4952976;29;20227;-93
2020/12/15 00:24:53;;;;;;;7.73;6.50;;;12.70;80.60;;;;;;4941305;29;20184;-92
2020/12/15 00:27:19;;;;;;;11.40;7.17;;;12.80;80.70;;;;;;4939958;29;20201;-92
2020/12/15 00:29:45;;;;;;;10.50;6.47;;;12.90;80.90;;;;;;4940012;29;20220;-93
2020/12/15 00:32:10;;;;;;;14.17;6.53;;;13.00;80.80;;;;;;4940532;29;20184;-93
2020/12/15 00:34:36;;;;;;;8.90;5.73;;;12.90;80.40;;;;;;4940322;29;20271;-93
2020/12/15 00:37:02;;;;;;;7.50;6.63;;;12.70;80.30;;;;;;4939736;29;20424;-93
2020/12/15 00:39:28;;;;;;;10.67;5.80;;;12.70;80.70;;;;;;4941770;29;20342;-93
2020/12/15 00:41:54;;;;;;;7.90;6.50;;;12.50;80.90;;;;;;4957096;29;20188;-93
2020/12/15 00:44:19;;;;;;;6.77;4.90;;;12.30;81.50;;;;;;4941600;29;20189;-93
2020/12/15 00:46:50;;;;;;;8.53;6.80;;;12.30;82.10;;;;;;4941233;29;20621;-93
2020/12/15 00:49:16;;;;;;;7.43;5.80;;;12.30;82.00;;;;;;4940962;29;20203;-93
2020/12/15 00:51:42;;;;;;;11.07;6.05;;;12.40;82.10;;;;;;4952711;28;20177;-93
2020/12/15 00:54:08;;;;;;;10.20;5.97;;;12.50;82.20;;;;;;4963669;28;20192;-92
2020/12/15 00:56:33;;;;;;;13.47;6.20;;;12.50;81.70;;;;;;4963668;28;20183;-94
2020/12/15 00:59:00;;;;;;;8.00;5.57;;;12.60;81.60;;;;;;4964580;28;20200;-93
2020/12/15 01:01:26;;;;;;;6.47;5.85;;;12.50;81.30;;;;;;4967561;28;20242;-91
2020/12/15 01:03:52;;;;;;;9.60;5.83;;;12.40;81.20;;;;;;4954665;28;20196;-93
2020/12/15 01:06:18;;;;;;;10.35;6.85;;;12.30;81.50;;;;;;4949033;28;20478;-93
2020/12/15 01:08:44;;;;;;;9.73;6.20;;;12.10;82.00;;;;;;4966480;28;20228;-93
2020/12/15 01:11:09;;;;;;;11.77;6.50;;;12.20;82.30;;;;;;4946113;29;20188;-93
2020/12/15 01:13:35;;;;;;;9.57;5.93;;;12.30;82.40;;;;;;4945940;29;20200;-94
2020/12/15 01:16:05;;;;;;;7.03;6.10;;;12.20;82.20;;;;;;4944945;29;20229;-94
2020/12/15 01:18:31;;;;;;;10.65;5.75;;;12.20;82.10;;;;;;4944298;29;20301;-94
2020/12/15 01:20:57;;;;;;;8.40;5.60;;;12.30;82.20;;;;;;4943768;29;20252;-93
2020/12/15 01:23:22;;;;;;;14.10;6.23;;;12.20;82.00;;;;;;4945032;29;20558;-93
2020/12/15 01:25:48;;;;;;;8.30;5.90;;;12.20;82.40;;;;;;4943923;29;20184;-94
2020/12/15 01:28:14;;;;;;;7.77;5.70;;;12.20;82.30;;;;;;4943845;29;20619;-92
2020/12/15 01:30:40;;;;;;;8.32;5.78;;;12.20;82.50;;;;;;4943956;29;20664;-92
2020/12/15 01:33:06;;;;;;;9.23;6.33;;;12.20;82.50;;;;;;4943968;29;20240;-92
2020/12/15 01:35:31;;;;;;;6.60;4.90;;;12.20;82.30;;;;;;4943928;29;20232;-92
2020/12/15 01:37:57;;;;;;;6.97;5.60;;;12.30;82.40;;;;;;4944581;29;20551;-92
2020/12/15 01:40:28;;;;;;;10.33;5.40;;;12.50;82.30;;;;;;4944243;29;20201;-93
2020/12/15 01:42:53;;;;;;;5.53;4.78;;;12.40;82.00;;;;;;4966907;28;20180;-93
2020/12/15 01:45:20;;;;;;;8.10;5.10;;;12.40;81.80;;;;;;4966608;28;20168;-92
2020/12/15 01:47:46;;;;;;;9.05;5.95;;;12.60;81.70;;;;;;4966675;29;20467;-92
2020/12/15 01:50:12;;;;;;;7.83;5.77;;;12.60;81.30;;;;;;4966884;28;20782;-94
2020/12/15 01:52:38;;;;;;;8.02;5.70;;;12.50;81.10;;;;;;4956735;29;20184;-92
2020/12/15 01:55:04;;;;;;;11.13;5.68;;;12.50;81.20;;;;;;4943126;29;20187;-92
2020/12/15 01:57:31;;;;;;;14.20;5.90;;;12.50;81.20;;;;;;4943359;29;20212;-92
2020/12/15 01:59:57;;;;;;;7.90;5.88;;;12.50;81.10;;;;;;4943036;29;20503;-92
2020/12/15 02:02:22;;;;;;;6.43;5.07;;;12.40;81.40;;;;;;4952265;28;20272;-92
2020/12/15 02:04:51;;;;;;;16.80;5.67;;;12.40;81.40;;;;;;4953203;29;20645;-92
2020/12/15 02:07:18;;;;;;;12.90;6.38;;;12.50;81.40;;;;;;4947099;29;20208;-93
2020/12/15 02:09:44;;;;;;;9.05;5.32;;;12.40;81.20;;;;;;4943122;28;20200;-94
2020/12/15 02:12:12;;;;;;;12.75;6.00;;;12.50;81.40;;;;;;4943186;29;20555;-93
2020/12/15 02:14:39;;;;;;;8.98;5.28;;;12.40;81.40;;;;;;4942859;29;20558;-93
2020/12/15 02:17:05;;;;;;;11.25;5.63;;;12.30;81.50;;;;;;4942546;29;20248;-93
2020/12/15 02:19:31;;;;;;;7.35;5.60;;;12.50;81.70;;;;;;4942483;29;20219;-92
2020/12/15 02:22:00;;;;;;;7.43;4.80;;;12.50;81.40;;;;;;4942672;29;20196;-93
2020/12/15 02:24:26;;;;;;;7.05;5.30;;;12.60;81.20;;;;;;4943654;29;20184;-92
2020/12/15 02:26:53;;;;;;;9.35;6.10;;;12.60;81.20;;;;;;4942867;29;20214;-92
2020/12/15 02:29:19;;;;;;;5.95;5.18;;;12.60;80.90;;;;;;4944102;29;20264;-93
2020/12/15 02:31:45;;;;;;;7.60;4.97;;;12.60;80.90;;;;;;4943420;29;20179;-91
2020/12/15 02:34:11;;;;;;;5.33;4.80;;;12.70;81.00;;;;;;4944191;29;20184;-92
2020/12/15 02:36:37;;;;;;;7.50;5.53;;;12.60;80.70;;;;;;4943274;29;20420;-92
2020/12/15 02:39:10;;;;;;;5.63;4.40;;;12.70;80.90;;;;;;4943809;29;20467;-92
2020/12/15 02:41:36;;;;;;;7.97;5.00;;;12.80;80.50;;;;;;4943340;29;20796;-92
2020/12/15 02:44:03;;;;;;;5.93;4.90;;;12.60;80.10;;;;;;4942439;29;20180;-92
2020/12/15 02:46:29;;;;;;;8.55;5.22;;;12.40;80.50;;;;;;4942018;29;20420;-92
2020/12/15 02:48:56;;;;;;;7.88;4.63;;;12.70;81.00;;;;;;4942555;28;20196;-92
2020/12/15 02:51:23;;;;;;;6.88;5.35;;;12.80;80.80;;;;;;4944012;29;20177;-92
2020/12/15 02:53:49;;;;;;;10.18;4.70;;;12.90;80.50;;;;;;4942458;29;20208;-92
2020/12/15 02:56:22;;;;;;;5.83;4.70;;;13.00;80.00;;;;;;4942827;29;20176;-92
2020/12/15 02:58:48;;;;;;;8.43;5.65;;;13.10;79.60;;;;;;4956457;28;20432;-92
2020/12/15 03:01:15;;;;;;;6.27;5.00;;;13.00;79.30;;;;;;4942258;29;20181;-92
2020/12/15 03:03:41;;;;;;;9.60;5.15;;;12.90;79.00;;;;;;4942151;29;20184;-92
2020/12/15 03:06:07;;;;;;;6.03;5.03;;;12.70;79.30;;;;;;4942003;29;20193;-92
2020/12/15 03:08:33;;;;;;;11.13;5.07;;;12.70;79.70;;;;;;4942226;28;20204;-92
2020/12/15 03:11:00;;;;;;;8.20;5.10;;;12.50;79.80;;;;;;4942722;29;20790;-92
2020/12/15 03:13:26;;;;;;;8.30;5.00;;;12.60;80.00;;;;;;4943232;29;20177;-92
2020/12/15 03:15:52;;;;;;;7.63;5.70;;;12.60;79.90;;;;;;4942353;29;20181;-92
2020/12/15 03:18:18;;;;;;;8.93;5.50;;;12.70;80.10;;;;;;4942360;29;20507;-93
2020/12/15 03:20:47;;;;;;;5.97;5.27;;;12.70;79.80;;;;;;4941765;29;20314;-92
2020/12/15 03:23:17;;;;;;;10.52;5.45;;;12.70;79.70;;;;;;4942032;29;20176;-93
2020/12/15 03:25:43;;;;;;;7.15;5.22;;;12.70;79.50;;;;;;4957726;29;20192;-92
2020/12/15 03:28:08;;;;;;;12.17;5.83;;;12.50;79.40;;;;;;4941691;29;20219;-92
2020/12/15 03:30:35;;;;;;;7.13;4.80;;;12.60;79.30;;;;;;4944039;29;20528;-92
2020/12/15 03:33:01;;;;;;;7.93;5.43;;;12.50;79.50;;;;;;4942672;29;20181;-92
2020/12/15 03:35:27;;;;;;;9.30;5.28;;;12.50;79.60;;;;;;4943612;29;20219;-93
2020/12/15 03:37:55;;;;;;;7.00;5.50;;;12.60;79.50;;;;;;4941945;29;20189;-93
2020/12/15 03:40:22;;;;;;;8.00;6.22;;;12.60;79.40;;;;;;4943006;29;20323;-92
2020/12/15 03:42:48;;;;;;;5.97;5.38;;;12.60;79.30;;;;;;4942250;29;20267;-93
2020/12/15 03:45:14;;;;;;;8.20;6.00;;;12.70;79.40;;;;;;4942311;29;20233;-92
2020/12/15 03:47:40;;;;;;;8.88;5.60;;;12.70;79.00;;;;;;4942041;29;20495;-92
2020/12/15 03:50:09;;;;;;;10.05;5.60;;;12.80;79.00;;;;;;4942330;29;20240;-92
2020/12/15 03:52:36;;;;;;;6.75;5.45;;;12.60;78.80;;;;;;4945932;28;20168;-92
2020/12/15 03:55:02;;;;;;;6.50;5.25;;;12.60;78.90;;;;;;4960905;29;20234;-92
2020/12/15 03:57:28;;;;;;;8.32;5.25;;;12.60;79.20;;;;;;4943816;29;20593;-92
2020/12/15 03:59:54;;;;;;;15.27;8.27;;;12.70;79.40;;;;;;4940911;29;20227;-92
2020/12/15 04:02:20;;;;;;;8.73;5.13;;;12.70;79.20;;;;;;4942279;29;20551;-92
2020/12/15 04:04:46;;;;;;;6.80;6.10;;;12.80;79.40;;;;;;4940864;29;20219;-92
2020/12/15 04:07:11;;;;;;;7.47;5.60;;;12.80;78.70;;;;;;4941045;29;20615;-92
2020/12/15 04:09:37;;;;;;;7.10;5.90;;;13.00;78.70;;;;;;4940386;29;20444;-92
2020/12/15 04:12:03;;;;;;;29.73;6.50;;;13.00;78.20;;;;;;4941580;29;20421;-93
2020/12/15 04:14:29;;;;;;;6.23;5.63;;;13.00;78.20;;;;;;4940985;29;20644;-92
2020/12/15 04:16:54;;;;;;;8.77;6.80;;;12.70;77.70;;;;;;4940764;29;20199;-92
2020/12/15 04:19:20;;;;;;;10.33;6.37;;;12.90;78.00;;;;;;4942172;29;20241;-92
2020/12/15 04:21:46;;;;;;;8.53;6.67;;;12.80;78.20;;;;;;4937773;29;20208;-92
2020/12/15 04:24:12;;;;;;;10.10;6.25;;;12.80;78.90;;;;;;4947804;29;20189;-92
2020/12/15 04:26:38;;;;;;;10.60;6.80;;;12.80;78.30;;;;;;4940348;29;20668;-92
2020/12/15 04:29:03;;;;;;;9.40;6.70;;;12.70;78.40;;;;;;4955303;28;20200;-92
2020/12/15 04:31:32;;;;;;;8.30;6.23;;;12.70;78.60;;;;;;4950222;29;20420;-92
2020/12/15 04:33:58;;;;;;;8.00;6.85;;;12.50;78.70;;;;;;4962298;28;20184;-93
2020/12/15 04:36:24;;;;;;;9.63;6.30;;;12.50;79.00;;;;;;4940205;29;20270;-93
2020/12/15 04:38:50;;;;;;;7.73;6.47;;;12.70;78.90;;;;;;4940194;28;20188;-93
2020/12/15 04:41:17;;;;;;;11.15;6.53;;;12.60;78.50;;;;;;4942417;29;20644;-93
2020/12/15 04:43:44;;;;;;;11.63;7.60;;;12.70;78.80;;;;;;4940261;29;20188;-93
2020/12/15 04:46:12;;;;;;;9.30;6.95;;;12.80;78.70;;;;;;4940038;29;20200;-93
2020/12/15 04:48:47;;;;;;;7.60;6.70;;;12.90;78.50;;;;;;4950827;28;20208;-92
2020/12/15 04:51:18;;;;;;;8.35;6.50;;;12.80;78.00;;;;;;4943597;29;20176;-93
2020/12/15 04:53:53;;;;;;;7.75;6.32;;;13.00;78.10;;;;;;4940619;29;20244;-93
2020/12/15 04:56:29;;;;;;;9.10;6.25;;;13.10;77.90;;;;;;4939523;29;20226;-92
2020/12/15 04:58:59;;;;;;;13.50;6.70;;;13.20;78.00;;;;;;4940114;28;20251;-93
2020/12/15 05:01:26;;;;;;;9.23;6.57;;;13.00;77.20;;;;;;4940264;29;20216;-93
2020/12/15 05:03:53;;;;;;;7.75;5.90;;;13.00;77.90;;;;;;4941510;29;20196;-93
2020/12/15 05:06:25;;;;;;;10.30;7.78;;;12.90;77.80;;;;;;4940344;29;20188;-93
2020/12/15 05:08:52;;;;;;;9.45;6.95;;;12.80;77.60;;;;;;4945037;28;20227;-93
2020/12/15 05:11:18;;;;;;;13.38;6.78;;;12.70;77.80;;;;;;4940265;29;20187;-93
2020/12/15 05:13:43;;;;;;;11.97;7.07;;;12.70;78.30;;;;;;4940693;29;20180;-93
2020/12/15 05:16:09;;;;;;;8.80;6.53;;;12.50;78.50;;;;;;4939609;29;20176;-93
2020/12/15 05:18:35;;;;;;;11.60;7.67;;;12.60;79.00;;;;;;4941036;28;20513;-93
2020/12/15 05:21:14;;;;;;;14.60;7.73;;;12.60;79.00;;;;;;4940180;29;20685;-93
2020/12/15 05:23:49;;;;;;;12.43;7.38;;;12.70;78.90;;;;;;4940370;29;20261;-92
2020/12/15 05:26:22;;;;;;;10.85;6.32;;;12.90;79.00;;;;;;4941582;29;20192;-93
2020/12/15 05:29:01;;;;;;;9.63;7.55;;;12.90;78.30;;;;;;4950115;28;20207;-92
2020/12/15 05:31:27;;;;;;;13.48;7.38;;;12.90;78.20;;;;;;4940021;29;20173;-94
2020/12/15 05:33:53;;;;;;;10.77;7.07;;;12.90;78.20;;;;;;4940568;29;20259;-93
2020/12/15 05:36:22;;;;;;;11.27;6.22;;;12.90;78.40;;;;;;4939745;29;20280;-92
2020/12/15 05:39:06;;;;;;;9.77;7.40;;;12.90;78.60;;;;;;4939706;28;20645;-93
2020/12/15 05:41:33;;;;;;;10.90;7.45;;;12.90;78.10;;;;;;4939997;29;20181;-92
2020/12/15 05:44:00;;;;;;;10.73;7.18;;;13.20;78.60;;;;;;4949452;29;20168;-91
2020/12/15 05:46:28;;;;;;;10.77;7.18;;;13.20;78.20;;;;;;4949356;29;20181;-92
2020/12/15 05:49:05;;;;;;;13.05;7.72;;;13.20;78.20;;;;;;4943940;28;20216;-92
2020/12/15 05:51:41;;;;;;;8.88;7.35;;;13.30;78.30;;;;;;4944108;29;20184;-92
2020/12/15 05:54:12;;;;;;;12.73;7.88;;;13.30;78.50;;;;;;4944117;29;20655;-92
2020/12/15 05:56:38;;;;;;;11.55;8.18;;;13.40;77.80;;;;;;4944554;29;20331;-92
2020/12/15 05:59:18;;;;;;;11.00;9.38;;;13.40;77.20;;;;;;4944363;29;20228;-92
2020/12/15 06:01:48;;;;;;;10.77;7.85;;;13.20;76.70;;;;;;4944169;29;20191;-92
2020/12/15 06:04:15;;;;;;;10.38;7.00;;;13.20;77.20;;;;;;4944659;29;20183;-92
2020/12/15 06:06:42;;;;;;;11.63;7.60;;;13.00;77.10;;;;;;4945129;29;20184;-93
2020/12/15 06:09:10;;;;;;;11.23;7.32;;;12.90;77.70;;;;;;4946983;29;20200;-93
2020/12/15 06:11:39;;;;;;;9.23;6.80;;;13.00;77.90;;;;;;4946732;29;20181;-93
2020/12/15 06:14:06;;;;;;;8.77;7.40;;;12.80;77.90;;;;;;4946323;29;20199;-93
2020/12/15 06:16:35;;;;;;;10.32;7.20;;;12.80;78.20;;;;;;4944747;29;20640;-93
2020/12/15 06:19:01;;;;;;;9.43;6.55;;;12.80;78.50;;;;;;4946062;29;20201;-93
2020/12/15 06:21:28;;;;;;;12.02;6.60;;;13.00;78.50;;;;;;4940895;29;20206;-93
2020/12/15 06:24:01;;;;;;;13.35;6.60;;;12.90;78.50;;;;;;4942578;29;20188;-92
2020/12/15 06:26:28;;;;;;;9.80;6.90;;;12.90;78.60;;;;;;4948697;28;20173;-92
2020/12/15 06:29:03;;;;;;;10.35;7.25;;;12.90;78.40;;;;;;4966132;28;20215;-92
2020/12/15 06:31:29;;;;;;;10.27;7.45;;;12.80;78.30;;;;;;4982119;28;20169;-94
2020/12/15 06:34:00;;;;;;;11.70;6.80;;;12.80;78.50;;;;;;4966192;29;20171;-92
2020/12/15 06:36:33;;;;;;;14.80;7.22;;;12.80;78.50;;;;;;4964596;29;20415;-90
2020/12/15 06:39:12;;;;;;;9.82;6.60;;;12.80;78.60;;;;;;4963360;29;20215;-91
2020/12/15 06:41:38;;;;;;;16.70;6.45;;;12.90;78.70;;;;;;4965459;29;20172;-92
2020/12/15 06:44:05;;;;;;;11.67;7.60;;;13.00;78.50;;;;;;4965329;29;20173;-92
2020/12/15 06:46:31;;;;;;;10.10;6.75;;;13.00;78.10;;;;;;4963595;29;20175;-92
2020/12/15 06:48:58;;;;;;;12.40;7.70;;;13.10;78.20;;;;;;4949331;29;20283;-93
2020/12/15 06:51:29;;;;;;;9.60;7.20;;;13.20;77.90;;;;;;4943554;29;20408;-92
2020/12/15 06:54:02;;;;;;;11.85;7.22;;;13.20;77.80;;;;;;4944144;29;20227;-92
2020/12/15 06:56:29;;;;;;;8.88;7.07;;;13.30;77.90;;;;;;4941702;29;20645;-92
2020/12/15 06:59:04;;;;;;;10.43;5.78;;;13.40;77.60;;;;;;4942853;28;20219;-92
2020/12/15 07:01:31;;;;;;;9.85;6.43;;;13.40;77.90;;;;;;4942884;29;20176;-92
2020/12/15 07:03:58;;;;;;;13.80;6.95;;;13.40;77.10;;;;;;4943127;29;20199;-92
2020/12/15 07:06:25;;;;;;;10.95;6.57;;;13.30;76.90;;;;;;4954797;29;20188;-91
2020/12/15 07:09:08;;;;;;;12.80;6.70;;;13.30;77.00;;;;;;4942660;29;20205;-93
2020/12/15 07:11:34;;;;;;;11.77;7.40;;;13.30;77.30;;;;;;4925526;29;20532;-92
2020/12/15 07:14:02;;;;;;;12.83;6.60;;;13.40;77.70;;;;;;4924604;29;20213;-93
2020/12/15 07:16:29;;;;;;;12.27;6.65;;;13.40;77.40;;;;;;4941724;29;20448;-92
2020/12/15 07:18:55;;;;;;;12.45;6.85;;;13.40;77.20;;;;;;4942742;28;20272;-92
2020/12/15 07:21:23;;;;;;;7.75;6.40;;;13.50;77.40;;;;;;4933957;29;20212;-93
2020/12/15 07:23:50;;;;;;;15.38;7.93;;;13.50;77.30;;;;;;4923657;29;20196;-92
2020/12/15 07:26:18;;;;;;;11.40;5.85;;;13.50;77.10;;;;;;4923329;29;20222;-93
2020/12/15 07:28:45;;;;;;;10.13;6.10;;;13.40;76.70;;;;;;4923967;29;20633;-92
2020/12/15 07:31:12;;;;;;;10.50;6.40;;;13.40;76.50;;;;;;4923996;29;20238;-93
2020/12/15 07:33:39;;;;;;;15.05;6.57;;;13.30;76.70;;;;;;4924635;29;20276;-92
2020/12/15 07:36:16;;;;;;;10.63;6.97;;;13.30;77.00;;;;;;4949240;29;20196;-92
2020/12/15 07:38:44;;;;;;;14.02;6.95;;;13.30;77.50;;;;;;4948691;28;20200;-93
2020/12/15 07:41:17;;;;;;;9.65;5.88;;;13.30;77.40;;;;;;4943385;29;20233;-93
2020/12/15 07:43:53;;;;;;;12.10;6.32;;;13.10;77.50;;;;;;4959088;29;20552;-93
2020/12/15 07:46:23;;;;;;;12.40;6.78;;;13.10;77.90;;;;;;4942272;29;20191;-92
2020/12/15 07:48:50;;;;;;;12.45;6.88;;;13.10;78.10;;;;;;4942796;28;20216;-91
2020/12/15 07:51:16;;;;;;;9.40;6.93;;;13.30;78.40;;;;;;4941235;29;20184;-92
2020/12/15 07:53:57;;;;;;;10.50;6.73;;;13.30;78.10;;;;;;4941419;29;20185;-92
2020/12/15 07:56:23;;;;;;;11.20;6.18;;;13.50;77.90;;;;;;4941317;29;20183;-91
2020/12/15 07:58:51;;;;;;;10.95;5.80;;;13.50;77.60;;;;;;4947642;28;20192;-92
2020/12/15 08:01:28;;;;;;;15.30;6.97;;;13.60;77.20;;;;;;4963236;28;20196;-91
2020/12/15 08:04:04;;;;;;;11.63;6.72;;;13.60;77.00;;;;;;4963248;29;20259;-91
2020/12/15 08:06:33;;;;;;;12.70;6.90;;;13.60;76.90;;;;;;4963075;29;20189;-92
2020/12/15 08:08:59;;;;;;;10.90;6.00;;;13.60;76.70;;;;;;4963930;29;20215;-91
2020/12/15 08:11:27;;;;;;;15.50;5.75;;;13.60;76.70;;;;;;4955629;29;20204;-92
2020/12/15 08:13:53;;;;;;;8.73;6.28;;;13.60;76.60;;;;;;4944942;29;20636;-92
2020/12/15 08:16:19;;;;;;;9.60;6.55;;;13.80;76.70;;;;;;4943543;29;20271;-92
2020/12/15 08:18:46;;;;;;;12.23;5.97;;;13.80;77.40;;;;;;4942167;28;20191;-92
2020/12/15 08:21:18;;;;;;;12.80;5.38;;;13.70;76.60;;;;;;4944325;29;20212;-93
2020/12/15 08:23:51;;;;;;;11.32;5.68;;;13.80;76.60;;;;;;4942943;29;20192;-93
2020/12/15 08:26:18;;;;;;;9.85;6.03;;;13.70;75.90;;;;;;4945081;29;20183;-93
2020/12/15 08:28:45;;;;;;;8.13;5.47;;;13.60;75.50;;;;;;4945871;28;20231;-94
2020/12/15 08:31:11;;;;;;;6.18;5.05;;;13.70;76.40;;;;;;4944911;29;20184;-93
2020/12/15 08:33:38;;;;;;;6.55;5.25;;;13.70;76.10;;;;;;4956771;28;20183;-93
2020/12/15 08:36:04;;;;;;;8.73;5.05;;;13.70;76.10;;;;;;4944377;29;20177;-93
2020/12/15 08:38:30;;;;;;;8.73;5.43;;;13.60;75.80;;;;;;4944337;29;20177;-93
2020/12/15 08:40:59;;;;;;;7.63;5.40;;;13.70;76.10;;;;;;4943746;29;20651;-93
2020/12/15 08:43:24;;;;;;;9.02;5.45;;;13.80;76.40;;;;;;4947096;29;20488;-93
2020/12/15 08:45:51;;;;;;;7.07;5.13;;;13.80;76.00;;;;;;4944652;29;20662;-93
2020/12/15 08:48:19;;;;;;;12.43;5.80;;;13.80;75.70;;;;;;4943034;29;20463;-93
2020/12/15 08:50:46;;;;;;;10.70;5.30;;;13.80;75.80;;;;;;4939968;29;20197;-93
2020/12/15 08:53:12;;;;;;;10.80;5.97;;;13.80;75.40;;;;;;4972449;28;20204;-93
2020/12/15 08:55:39;;;;;;;8.10;5.43;;;13.70;75.50;;;;;;4963040;29;20252;-92
2020/12/15 08:58:08;;;;;;;8.45;5.97;;;13.80;75.80;;;;;;4963009;28;20176;-94
2020/12/15 09:00:45;;;;;;;7.10;5.05;;;13.90;75.80;;;;;;4959858;28;20256;-92
2020/12/15 09:03:16;;;;;;;7.70;5.05;;;13.90;75.60;;;;;;4958530;29;20633;-92
2020/12/15 09:05:54;;;;;;;13.65;5.82;;;13.80;75.20;;;;;;4953935;29;20205;-92
2020/12/15 09:08:21;;;;;;;6.95;5.18;;;13.70;75.40;;;;;;4953718;28;20203;-92
2020/12/15 09:10:51;;;;;;;6.90;5.40;;;13.60;75.40;;;;;;4981958;28;20308;-93
2020/12/15 09:13:17;;;;;;;8.40;5.28;;;13.60;75.80;;;;;;4981785;28;20179;-92
2020/12/15 09:15:51;;;;;;;6.47;5.53;;;13.60;76.00;;;;;;4964688;28;20187;-93
2020/12/15 09:18:28;;;;;;;10.40;5.47;;;13.70;76.00;;;;;;4977802;28;20422;-93
2020/12/15 09:20:53;;;;;;;8.05;5.22;;;13.70;75.90;;;;;;4975388;28;20212;-92
2020/12/15 09:23:25;;;;;;;7.90;5.23;;;13.90;76.40;;;;;;4963345;29;20207;-93
2020/12/15 09:25:53;;;;;;;12.73;5.90;;;14.00;76.30;;;;;;4962990;29;20172;-92
2020/12/15 09:28:26;;;;;;;5.95;5.32;;;14.10;76.30;;;;;;4963330;29;20208;-93
2020/12/15 09:30:52;;;;;;;7.20;5.75;;;14.00;76.00;;;;;;4976974;28;20216;-92
2020/12/15 09:33:17;;;;;;;9.47;5.50;;;14.20;76.40;;;;;;4946912;29;20188;-93
2020/12/15 09:35:44;;;;;;;8.50;5.70;;;14.20;75.90;;;;;;4946271;29;20565;-92
2020/12/15 09:38:10;;;;;;;6.60;5.75;;;14.20;75.10;;;;;;4945835;29;20606;-92
2020/12/15 09:40:36;;;;;;;8.30;5.30;;;14.20;75.20;;;;;;4961471;28;20256;-94
2020/12/15 09:43:02;;;;;;;8.82;6.22;;;14.30;75.70;;;;;;4964426;29;20838;-94
2020/12/15 09:45:28;;;;;;;12.03;6.93;;;14.10;75.40;;;;;;4964948;29;20185;-94
2020/12/15 09:47:58;;;;;;;9.13;5.80;;;14.20;76.00;;;;;;4949688;29;20463;-94
2020/12/15 09:50:24;;;;;;;7.75;6.95;;;14.20;76.30;;;;;;4951202;29;20227;-94
2020/12/15 09:52:49;;;;;;;9.90;7.33;;;14.30;76.50;;;;;;4963942;29;20185;-94
2020/12/15 09:55:15;;;;;;;12.30;7.17;;;14.30;76.70;;;;;;4966150;29;20475;-94
2020/12/15 09:57:41;;;;;;;11.70;8.90;;;14.20;75.70;;;;;;4949864;29;20181;-94
2020/12/15 10:00:07;;;;;;;12.20;6.60;;;14.40;76.10;;;;;;4965935;28;20215;-94
2020/12/15 10:02:32;;;;;;;12.70;7.50;;;14.40;76.50;;;;;;4949584;29;20188;-94
2020/12/15 10:04:58;;;;;;;14.17;7.43;;;14.30;76.40;;;;;;4950070;29;20184;-94
2020/12/15 10:07:24;;;;;;;11.40;7.47;;;14.40;76.40;;;;;;4950536;29;20248;-94
2020/12/15 10:09:54;;;;;;;10.97;7.90;;;14.30;76.70;;;;;;4948461;29;20440;-94
2020/12/15 10:12:20;;;;;;;9.57;7.65;;;14.40;76.70;;;;;;4948025;29;20288;-93
2020/12/15 10:14:46;;;;;;;12.77;8.30;;;14.40;76.20;;;;;;4948186;29;20199;-93
2020/12/15 10:17:12;;;;;;;10.93;7.47;;;14.50;76.30;;;;;;4946442;29;20652;-94
2020/12/15 10:19:38;;;;;;;12.77;7.03;;;14.50;76.40;;;;;;4944293;29;20208;-93
2020/12/15 10:22:04;;;;;;;8.88;7.13;;;14.50;75.90;;;;;;4947817;29;20448;-93
2020/12/15 10:24:30;;;;;;;10.93;8.13;;;14.60;76.10;;;;;;4948319;29;20184;-93
2020/12/15 10:26:55;;;;;;;15.13;7.77;;;14.60;75.90;;;;;;4960396;29;20187;-93
2020/12/15 10:29:23;;;;;;;10.37;8.47;;;14.40;75.00;;;;;;4948904;29;20711;-93
2020/12/15 10:31:50;;;;;;;14.95;8.07;;;14.40;75.00;;;;;;4945483;29;20181;-92
2020/12/15 10:34:16;;;;;;;8.70;7.65;;;14.40;75.50;;;;;;4947283;29;20240;-92
2020/12/15 10:36:42;;;;;;;10.90;7.90;;;14.40;75.70;;;;;;4948140;29;20271;-92
2020/12/15 10:39:07;;;;;;;11.57;8.03;;;14.40;75.30;;;;;;4948925;29;20204;-92
2020/12/15 10:41:37;;;;;;;13.17;8.63;;;14.40;75.80;;;;;;4946359;29;20189;-91
2020/12/15 10:44:03;;;;;;;12.18;9.02;;;14.30;76.00;;;;;;4945135;29;20184;-92
2020/12/15 10:46:29;;;;;;;8.77;7.68;;;14.30;75.90;;;;;;4942355;29;20303;-91
2020/12/15 10:48:55;;;;;;;10.57;8.07;;;14.30;75.80;;;;;;4949969;28;20715;-91
2020/12/15 10:51:21;;;;;;;10.73;8.40;;;14.30;75.80;;;;;;4951841;29;20421;-91
2020/12/15 10:53:47;;;;;;;14.32;8.43;;;14.30;76.50;;;;;;4949113;29;20507;-91
2020/12/15 10:56:13;;;;;;;8.07;7.30;;;14.30;76.10;;;;;;4947657;29;20653;-92
2020/12/15 10:58:39;;;;;;;15.77;8.65;;;14.40;75.60;;;;;;4948604;28;20428;-93
2020/12/15 11:01:07;;;;;;;13.10;8.95;;;14.30;75.80;;;;;;4947342;29;20252;-92
2020/12/15 11:03:34;;;;;;;13.13;9.80;;;14.40;75.80;;;;;;4946135;29;20190;-91
2020/12/15 11:05:59;;;;;;;12.38;8.60;;;14.40;75.80;;;;;;4944908;29;20184;-93
2020/12/15 11:08:26;;;;;;;16.30;8.43;;;14.40;75.90;;;;;;4945174;29;20218;-92
2020/12/15 11:10:53;;;;;;;12.13;8.00;;;14.40;76.00;;;;;;4945286;28;20208;-92
2020/12/15 11:13:19;;;;;;;14.00;9.32;;;14.20;76.00;;;;;;4947455;29;20249;-92
2020/12/15 11:15:44;;;;;;;12.63;8.87;;;14.20;76.20;;;;;;4946876;29;20196;-91
2020/12/15 11:18:10;;;;;;;16.40;9.20;;;14.20;76.30;;;;;;4945623;29;20186;-92
2020/12/15 11:20:36;;;;;;;15.32;10.23;;;14.40;76.70;;;;;;4945428;29;20223;-92
2020/12/15 11:23:02;;;;;;;13.90;10.00;;;14.40;76.60;;;;;;4957838;28;20213;-92
2020/12/15 11:25:28;;;;;;;17.53;9.40;;;14.30;76.70;;;;;;4953022;28;20188;-90
2020/12/15 11:27:54;;;;;;;13.00;10.00;;;14.30;77.00;;;;;;4942017;29;20220;-93
2020/12/15 11:30:19;;;;;;;13.68;9.93;;;14.30;77.10;;;;;;4943478;29;20535;-92
2020/12/15 11:32:47;;;;;;;12.40;10.10;;;14.30;77.00;;;;;;4944522;29;20208;-91
2020/12/15 11:35:13;;;;;;;13.13;10.18;;;14.20;77.10;;;;;;4944298;29;20177;-92
2020/12/15 11:37:42;;;;;;;15.00;10.43;;;14.30;77.40;;;;;;4944063;29;20199;-92
2020/12/15 11:40:10;;;;;;;15.20;8.90;;;14.40;77.10;;;;;;4950101;29;20199;-93
2020/12/15 11:42:36;;;;;;;15.52;10.40;;;14.30;76.90;;;;;;4950228;29;20188;-93
2020/12/15 11:45:03;;;;;;;16.83;10.40;;;14.30;77.00;;;;;;4946525;29;20216;-91
2020/12/15 11:47:29;;;;;;;15.93;11.02;;;14.10;76.90;;;;;;4943735;29;20209;-93
2020/12/15 11:49:55;;;;;;;15.00;10.33;;;14.20;77.60;;;;;;4944297;29;20255;-92
2020/12/15 11:52:20;;;;;;;13.07;10.43;;;14.10;77.40;;;;;;4943423;29;20199;-92
2020/12/15 11:54:46;;;;;;;14.57;11.20;;;14.20;77.90;;;;;;4945181;29;20319;-92
2020/12/15 11:57:14;;;;;;;19.10;11.40;;;14.40;77.60;;;;;;4946144;29;20208;-93
2020/12/15 11:59:40;;;;;;;22.33;12.07;;;14.50;77.20;;;;;;4947620;29;20208;-93
2020/12/15 12:02:06;;;;;;;21.60;12.07;;;14.50;76.90;;;;;;4944793;29;20204;-92
2020/12/15 12:04:32;;;;;;;14.65;10.23;;;14.50;76.80;;;;;;4959180;29;20588;-92
2020/12/15 12:06:58;;;;;;;12.90;10.77;;;14.50;76.80;;;;;;4943174;29;20264;-92
2020/12/15 12:09:24;;;;;;;12.90;10.53;;;14.40;76.20;;;;;;4942741;29;20239;-91
2020/12/15 12:11:50;;;;;;;24.67;11.90;;;14.40;76.30;;;;;;4945549;28;20717;-92
2020/12/15 12:14:17;;;;;;;22.27;11.80;;;14.40;76.60;;;;;;4975730;28;20212;-92
2020/12/15 12:16:43;;;;;;;15.80;12.40;;;14.30;76.40;;;;;;4941901;29;20192;-92
2020/12/15 12:19:08;;;;;;;18.53;10.50;;;14.30;76.70;;;;;;4946347;29;20200;-91
2020/12/15 12:21:34;;;;;;;14.40;11.70;;;14.30;77.10;;;;;;4961174;29;20196;-92
2020/12/15 12:24:00;;;;;;;16.00;10.60;;;14.30;77.10;;;;;;4960402;29;20197;-90
2020/12/15 12:26:27;;;;;;;14.45;10.55;;;14.30;77.70;;;;;;4975254;28;20181;-91
2020/12/15 12:28:53;;;;;;;14.95;11.68;;;14.10;77.00;;;;;;4977385;28;20331;-90
2020/12/15 12:31:19;;;;;;;14.48;11.88;;;14.10;77.60;;;;;;4960823;28;20172;-93
2020/12/15 12:33:45;;;;;;;17.60;13.55;;;14.10;77.80;;;;;;4963839;29;20273;-94
2020/12/15 12:36:11;;;;;;;18.63;13.00;;;14.10;78.10;;;;;;4963495;29;20176;-92
2020/12/15 12:38:37;;;;;;;24.30;13.33;;;14.00;78.20;;;;;;4952599;28;20432;-92
2020/12/15 12:41:02;;;;;;;18.37;12.57;;;14.10;78.30;;;;;;4944604;29;20908;-93